Author Topic: EGAA 31 December 2020  (Read 492 times)

0 Members and 1 Guest are viewing this topic.

Offline Alertbot

  • Military Movements Group
  • Air Chief Marshal
  • *
  • Posts: 4065
EGAA 31 December 2020
« on: December 31, 2020, 07:42:24 AM »
Weather diversions this morning:

SF34 G-LGNN
LOG750 from EGSS
In hold from 05:14
Diverted to EGPK at 05:40 but had to hold there, finally landed 06:35
Subsequently to EGPE

B762 OY-SRJ
SRR6978 from EGNX
In hold since 05:35
Landed 08:03

B734 OE-IBI
TAY4012 from EGNX
In hold since 07:25
Diverted to EGPH at 07:50 due to fuel state
Subsequently to EGAA:
a 10:44 TAY4902
d 13:12 TAY4014 to EGNX


METARs:

EGAA 310450Z 28006KT 4300 -SN SCT006 BKN010 OVC014 00/M00 Q1004 REFZRA
EGAA 310520Z 27007KT 2800 -SN BKN002 OVC011 00/M00 Q1004 RESN
EGAA 310550Z 26010KT 9000 -SN SCT001 BKN006 BKN040 00/00 Q1004 R/SNOCLO
EGAA 310620Z 26005KT 9999 FEW002 SCT019 00/M00 Q1004 REFZRA R/SNOCLO
EGAA 310650Z 31004KT 9999 SCT005 BKN010 BKN019 M01/M01 Q1004 REFZRA
EGAA 310720Z 30002KT 9999 SHSN BKN003 BKN006 00/00 Q1005 REFZRA R/SNOCLO
« Last Edit: December 31, 2020, 04:04:46 PM by Alertbot »

Offline NISPOT

  • G8 Contact Group
  • Air Commodore
  • *
  • Posts: 883
  • Gender: Male
  • Local Airport: EGAC
  • Favourite Aircraft: Ikarus C42
Re: EGAA 31 December 2020
« Reply #1 on: December 31, 2020, 08:33:17 AM »
A306 D-AEAM
BCS2406 from EGNX
06:15 - Diverted to EIDW

Offline Alertbot

  • Military Movements Group
  • Air Chief Marshal
  • *
  • Posts: 4065
Re: EGAA 31 December 2020
« Reply #2 on: January 01, 2021, 08:57:57 AM »
B734 TF-BBK DHK270
a 22:59 from EGNX
First visit
1994-built c/n 26302 formerly 2-MEEX ( F-conv ), OM-EEX, EI-FBR, YR-BAM, SE-RJA, SP-LLM, EI-CXM, VH-VOZ, TC-JEM